createdAt,value
2023-03-06T00:00:53.705Z,52.59
2023-03-06T00:03:24.231Z,52.66
2023-03-06T00:05:56.661Z,52.52
2023-03-06T00:08:27.169Z,52.31
2023-03-06T00:10:57.949Z,52.38
2023-03-06T00:13:31.418Z,52.58
2023-03-06T00:16:02.277Z,52.40
2023-03-06T00:18:32.015Z,52.51
2023-03-06T00:21:02.052Z,52.58
2023-03-06T00:23:31.305Z,52.64
2023-03-06T00:26:00.642Z,52.82
2023-03-06T00:28:32.631Z,52.88
2023-03-06T00:31:05.165Z,52.95
2023-03-06T00:33:34.690Z,52.86
2023-03-06T00:36:08.419Z,53.01
2023-03-06T00:38:38.942Z,53.33
2023-03-06T00:41:10.911Z,52.91
2023-03-06T00:43:41.423Z,53.06
2023-03-06T00:46:10.762Z,53.16
2023-03-06T00:48:41.683Z,53.13
2023-03-06T00:51:13.798Z,53.34
2023-03-06T00:53:43.578Z,53.30
2023-03-06T00:56:13.261Z,53.38
2023-03-06T00:58:42.912Z,53.39
2023-03-06T01:01:12.722Z,53.50
2023-03-06T01:03:42.576Z,53.41
2023-03-06T01:06:12.078Z,53.49
2023-03-06T01:08:41.550Z,53.70
2023-03-06T01:11:11.451Z,53.51
2023-03-06T01:13:41.159Z,53.83
2023-03-06T01:16:12.970Z,53.62
2023-03-06T01:18:44.106Z,53.75
2023-03-06T01:21:14.470Z,53.65
2023-03-06T01:23:45.634Z,53.83
2023-03-06T01:26:15.746Z,53.82
2023-03-06T01:28:45.880Z,53.48
2023-03-06T01:31:16.878Z,53.49
2023-03-06T01:33:46.753Z,53.39
2023-03-06T01:36:16.878Z,53.73
2023-03-06T01:38:48.614Z,53.62
2023-03-06T01:41:19.381Z,53.56
2023-03-06T01:43:51.342Z,53.46
2023-03-06T01:46:32.523Z,53.31
2023-03-06T01:49:20.637Z,53.59
2023-03-06T01:52:03.724Z,53.07
2023-03-06T01:54:36.967Z,52.94
2023-03-06T01:57:34.813Z,53.82
2023-03-06T02:00:09.663Z,53.40
2023-03-06T02:02:49.033Z,53.53
2023-03-06T02:05:18.698Z,53.55
2023-03-06T02:07:49.241Z,53.26
2023-03-06T02:10:19.729Z,53.29
2023-03-06T02:12:50.482Z,53.38
2023-03-06T02:15:24.141Z,53.29
2023-03-06T02:17:53.970Z,53.46
2023-03-06T02:20:38.725Z,53.21
2023-03-06T02:23:31.926Z,53.51
2023-03-06T02:26:02.906Z,53.51
2023-03-06T02:28:32.669Z,53.51
2023-03-06T02:31:03.952Z,53.59
2023-03-06T02:33:34.649Z,54.00
2023-03-06T02:36:06.876Z,53.73
2023-03-06T02:38:41.972Z,53.45
2023-03-06T02:41:13.261Z,53.64
2023-03-06T02:43:45.311Z,53.67
2023-03-06T02:46:16.647Z,53.50
2023-03-06T02:48:47.032Z,53.56
2023-03-06T02:51:16.643Z,53.53
2023-03-06T02:53:46.039Z,53.80
2023-03-06T02:56:17.679Z,53.54
2023-03-06T02:58:47.729Z,53.86
2023-03-06T03:01:17.535Z,53.76
2023-03-06T03:03:47.634Z,53.93
2023-03-06T03:06:17.472Z,53.91
2023-03-06T03:08:46.905Z,54.10
2023-03-06T03:11:16.873Z,54.05
2023-03-06T03:13:48.000Z,54.38
2023-03-06T03:16:21.443Z,54.29
2023-03-06T03:18:53.465Z,54.48
2023-03-06T03:21:24.601Z,54.73
2023-03-06T03:23:55.868Z,54.31
2023-03-06T03:26:27.272Z,54.64
2023-03-06T03:29:06.615Z,55.24
2023-03-06T03:31:35.942Z,55.64
2023-03-06T03:34:06.097Z,55.73
2023-03-06T03:36:38.553Z,55.86
2023-03-06T03:39:08.397Z,55.91
2023-03-06T03:41:40.101Z,56.30
2023-03-06T03:44:13.131Z,56.28
2023-03-06T03:46:42.673Z,56.70
2023-03-06T03:49:17.025Z,56.86
2023-03-06T03:51:46.835Z,56.93
2023-03-06T03:54:16.310Z,57.05
2023-03-06T03:56:47.948Z,57.13
2023-03-06T03:59:25.937Z,56.83
2023-03-06T04:02:07.695Z,57.04
2023-03-06T04:04:40.979Z,57.07
2023-03-06T04:07:10.900Z,57.39
2023-03-06T04:09:40.932Z,57.60
2023-03-06T04:12:10.846Z,57.73
2023-03-06T04:14:40.041Z,57.97
2023-03-06T04:17:09.429Z,57.97
2023-03-06T04:19:39.427Z,57.92
2023-03-06T04:22:11.579Z,57.51
2023-03-06T04:24:41.286Z,57.49
2023-03-06T04:27:11.605Z,57.43
2023-03-06T04:29:41.235Z,58.73
2023-03-06T04:32:10.594Z,59.41
2023-03-06T04:34:41.310Z,58.52
2023-03-06T04:37:24.416Z,58.19
2023-03-06T04:39:56.234Z,58.81
2023-03-06T04:42:25.958Z,58.78
2023-03-06T04:44:55.657Z,58.70
2023-03-06T04:47:25.058Z,58.30
2023-03-06T04:49:54.746Z,59.63
2023-03-06T04:52:26.983Z,59.76
2023-03-06T04:55:09.793Z,59.31
2023-03-06T04:57:40.519Z,59.36
2023-03-06T05:00:15.256Z,59.84
2023-03-06T05:02:45.475Z,59.84
2023-03-06T05:05:15.576Z,59.49
2023-03-06T05:07:45.869Z,59.36
2023-03-06T05:10:18.882Z,59.17
2023-03-06T05:12:48.724Z,58.11
2023-03-06T05:15:18.732Z,59.16
2023-03-06T05:17:49.119Z,60.26
2023-03-06T05:20:19.003Z,61.04
2023-03-06T05:22:48.321Z,60.45
2023-03-06T05:25:18.047Z,60.15
2023-03-06T05:27:47.305Z,61.30
2023-03-06T05:30:17.036Z,61.28
2023-03-06T05:32:46.502Z,61.06
2023-03-06T05:35:21.214Z,61.05
2023-03-06T05:37:51.312Z,61.35
2023-03-06T05:40:20.990Z,61.29
2023-03-06T05:42:50.829Z,60.89
2023-03-06T05:45:20.518Z,60.77
2023-03-06T05:47:50.238Z,60.22
2023-03-06T05:50:19.629Z,60.96
2023-03-06T05:52:51.962Z,60.77
2023-03-06T05:55:22.942Z,60.40
2023-03-06T05:57:53.562Z,60.43
2023-03-06T06:00:26.258Z,60.68
2023-03-06T06:02:55.575Z,60.64
2023-03-06T06:05:25.052Z,60.64
2023-03-06T06:07:54.800Z,61.19
2023-03-06T06:10:24.528Z,60.92
2023-03-06T06:12:53.983Z,60.74
2023-03-06T06:15:23.711Z,60.90
2023-03-06T06:17:53.376Z,60.39
2023-03-06T06:20:25.027Z,59.90
2023-03-06T06:22:54.661Z,60.07
2023-03-06T06:25:24.381Z,60.13
2023-03-06T06:27:56.762Z,60.60
2023-03-06T06:30:28.797Z,60.03
2023-03-06T06:32:58.367Z,59.67
2023-03-06T06:35:28.253Z,59.19
2023-03-06T06:37:58.202Z,58.64
2023-03-06T06:40:29.366Z,58.64
2023-03-06T06:42:59.661Z,58.60
2023-03-06T06:45:29.642Z,59.05
2023-03-06T06:48:02.510Z,59.29
2023-03-06T06:50:34.257Z,59.44
2023-03-06T06:53:03.960Z,59.27
2023-03-06T06:55:36.001Z,59.11
2023-03-06T06:58:05.374Z,58.81
2023-03-06T07:00:37.417Z,58.96
2023-03-06T07:03:06.831Z,58.12
2023-03-06T07:05:37.002Z,57.76
2023-03-06T07:08:06.738Z,57.67
2023-03-06T07:10:36.806Z,57.59
2023-03-06T07:13:07.364Z,57.41
2023-03-06T07:15:37.490Z,57.43
2023-03-06T07:18:07.220Z,57.53
2023-03-06T07:20:37.616Z,57.35
2023-03-06T07:23:09.904Z,58.17
2023-03-06T07:25:39.693Z,57.36
2023-03-06T07:28:09.274Z,57.08
2023-03-06T07:30:42.036Z,56.96
2023-03-06T07:33:11.823Z,54.90
2023-03-06T07:35:45.551Z,50.52
2023-03-06T07:38:15.989Z,49.33
2023-03-06T07:40:46.130Z,49.74
2023-03-06T07:43:19.304Z,47.60
2023-03-06T07:45:59.540Z,48.17
2023-03-06T07:48:29.245Z,48.04
2023-03-06T07:51:04.231Z,47.73
2023-03-06T07:53:34.901Z,47.66
2023-03-06T07:56:10.026Z,47.16
2023-03-06T07:58:46.001Z,47.85
2023-03-06T08:01:21.321Z,47.76
2023-03-06T08:03:51.528Z,46.00
2023-03-06T08:06:27.138Z,46.95
2023-03-06T08:08:58.050Z,47.49
2023-03-06T08:11:29.350Z,47.46
2023-03-06T08:13:59.486Z,48.13
2023-03-06T08:16:30.751Z,47.79
2023-03-06T08:19:03.340Z,46.94
2023-03-06T08:21:36.597Z,47.24
2023-03-06T08:24:07.574Z,47.30
2023-03-06T08:26:38.072Z,46.50
2023-03-06T08:29:12.405Z,46.48
2023-03-06T08:31:44.101Z,45.72
2023-03-06T08:34:20.825Z,45.82
2023-03-06T08:36:50.954Z,45.53
2023-03-06T08:39:20.862Z,45.11
2023-03-06T08:41:50.407Z,44.24
2023-03-06T08:44:20.340Z,43.34
2023-03-06T08:46:50.803Z,43.94
2023-03-06T08:49:20.435Z,44.27
2023-03-06T08:51:49.817Z,44.65
2023-03-06T08:54:22.691Z,43.80
2023-03-06T08:56:52.393Z,43.84
2023-03-06T08:59:21.825Z,42.69
2023-03-06T09:01:51.236Z,42.48
2023-03-06T09:04:20.722Z,43.31
2023-03-06T09:06:50.138Z,42.93
2023-03-06T09:09:20.675Z,42.80
2023-03-06T09:11:50.273Z,43.16
2023-03-06T09:14:19.365Z,42.43
2023-03-06T09:16:48.607Z,41.69
2023-03-06T09:19:18.285Z,42.04
2023-03-06T09:21:47.756Z,40.52
2023-03-06T09:24:18.202Z,40.82
2023-03-06T09:26:53.511Z,40.72
2023-03-06T09:29:23.209Z,40.85
2023-03-06T09:31:52.833Z,41.38
2023-03-06T09:34:22.248Z,39.99
2023-03-06T09:36:56.699Z,40.11
2023-03-06T09:39:27.453Z,39.42
2023-03-06T09:41:59.671Z,39.45
2023-03-06T09:44:32.274Z,38.97
2023-03-06T09:47:01.960Z,39.39
2023-03-06T09:50:11.389Z,38.35
2023-03-06T09:52:49.770Z,37.78
2023-03-06T09:55:25.595Z,38.04
2023-03-06T09:58:07.594Z,37.97
2023-03-06T10:00:44.319Z,39.50
2023-03-06T10:03:26.640Z,38.30
2023-03-06T10:06:10.340Z,36.73
2023-03-06T10:09:02.080Z,37.28
2023-03-06T10:12:00.267Z,37.58
2023-03-06T10:14:47.068Z,37.48
2023-03-06T10:17:19.740Z,37.44
2023-03-06T10:19:49.543Z,37.39
2023-03-06T10:22:24.938Z,37.20
2023-03-06T10:25:05.980Z,38.09
2023-03-06T10:27:46.280Z,38.01
2023-03-06T10:30:27.010Z,37.76
2023-03-06T10:33:00.206Z,38.06
2023-03-06T10:35:34.551Z,37.85
2023-03-06T10:38:33.204Z,38.29
2023-03-06T10:41:11.285Z,36.96
2023-03-06T10:43:42.035Z,35.85
2023-03-06T10:46:27.120Z,36.69
2023-03-06T10:49:06.139Z,37.47
2023-03-06T10:51:36.225Z,36.62
2023-03-06T10:54:19.970Z,35.94
2023-03-06T10:56:49.362Z,36.30
2023-03-06T10:59:26.018Z,36.53
2023-03-06T11:02:14.757Z,36.78
2023-03-06T11:04:47.284Z,36.50
2023-03-06T11:07:21.713Z,36.75
2023-03-06T11:09:59.604Z,36.79
2023-03-06T11:12:33.408Z,36.37
2023-03-06T11:15:10.093Z,37.17
2023-03-06T11:17:52.945Z,36.54
2023-03-06T11:20:24.234Z,37.00
2023-03-06T11:23:15.773Z,37.20
2023-03-06T11:25:51.279Z,37.02
2023-03-06T11:28:32.464Z,36.62
2023-03-06T11:31:32.777Z,36.14
2023-03-06T11:34:32.662Z,37.51
2023-03-06T11:37:07.213Z,36.60
2023-03-06T11:40:03.733Z,36.79
2023-03-06T11:42:37.925Z,36.78
2023-03-06T11:45:46.420Z,37.31
2023-03-06T11:48:15.457Z,37.23
2023-03-06T11:50:52.523Z,37.66
2023-03-06T11:53:33.034Z,38.15
2023-03-06T11:56:20.510Z,37.18
2023-03-06T11:58:58.633Z,37.44
2023-03-06T12:01:49.306Z,37.69
2023-03-06T12:04:44.823Z,37.67
2023-03-06T12:07:36.501Z,37.50
2023-03-06T12:10:19.651Z,38.09
2023-03-06T12:12:48.080Z,37.83
2023-03-06T12:15:44.750Z,37.08
2023-03-06T12:18:22.377Z,37.36
2023-03-06T12:20:53.906Z,36.77
2023-03-06T12:23:41.202Z,36.97
2023-03-06T12:26:20.026Z,36.15
2023-03-06T12:29:22.720Z,35.43
2023-03-06T12:32:10.393Z,34.85
2023-03-06T12:35:05.992Z,34.93
2023-03-06T12:37:59.996Z,34.97
2023-03-06T12:40:46.763Z,34.52
2023-03-06T12:43:40.248Z,35.02
2023-03-06T12:46:20.398Z,34.58
2023-03-06T12:49:23.025Z,34.31
2023-03-06T12:52:00.150Z,34.90
2023-03-06T12:54:31.852Z,34.52
2023-03-06T12:57:01.306Z,34.36
2023-03-06T12:59:48.919Z,34.72
2023-03-06T13:02:29.372Z,34.56
2023-03-06T13:05:19.069Z,33.77
2023-03-06T13:07:59.828Z,34.56
2023-03-06T13:10:32.357Z,34.02
2023-03-06T13:13:01.948Z,34.70
2023-03-06T13:15:43.319Z,34.93
2023-03-06T13:18:24.180Z,33.86
2023-03-06T13:20:56.771Z,34.11
2023-03-06T13:23:37.664Z,34.19
2023-03-06T13:26:25.926Z,34.14
2023-03-06T13:28:56.244Z,33.26
2023-03-06T13:31:35.302Z,32.78
2023-03-06T13:34:05.647Z,33.38
2023-03-06T13:36:38.406Z,33.06
2023-03-06T13:39:12.206Z,33.09
2023-03-06T13:41:53.757Z,33.27
2023-03-06T13:44:25.752Z,33.38
2023-03-06T13:47:08.893Z,33.37
2023-03-06T13:49:45.801Z,32.57
2023-03-06T13:52:44.564Z,32.76
2023-03-06T13:55:29.774Z,32.46
2023-03-06T13:58:10.847Z,33.14
2023-03-06T14:00:45.163Z,33.95
2023-03-06T14:03:34.084Z,34.15
2023-03-06T14:06:31.215Z,33.46
2023-03-06T14:09:00.175Z,33.68
2023-03-06T14:11:28.980Z,34.69
2023-03-06T14:13:58.305Z,34.27
2023-03-06T14:16:40.505Z,34.10
2023-03-06T14:19:17.928Z,34.37
2023-03-06T14:21:49.959Z,35.17
2023-03-06T14:24:31.829Z,34.14
2023-03-06T14:27:00.954Z,34.61
2023-03-06T14:29:30.413Z,34.21
2023-03-06T14:32:01.258Z,34.13
2023-03-06T14:34:33.147Z,34.22
2023-03-06T14:37:05.978Z,34.12
2023-03-06T14:39:40.499Z,33.53
2023-03-06T14:42:26.772Z,33.22
2023-03-06T14:45:08.408Z,33.76
2023-03-06T14:47:37.232Z,33.95
2023-03-06T14:50:26.620Z,34.33
2023-03-06T14:53:01.277Z,34.56
2023-03-06T14:55:30.733Z,34.24
2023-03-06T14:58:22.656Z,34.93
2023-03-06T15:00:54.739Z,34.95
2023-03-06T15:03:46.057Z,34.39
2023-03-06T15:06:21.180Z,34.50
2023-03-06T15:09:14.571Z,35.03
2023-03-06T15:11:52.866Z,34.64
2023-03-06T15:14:28.205Z,35.50
2023-03-06T15:16:56.738Z,34.82
2023-03-06T15:19:25.149Z,35.38
2023-03-06T15:21:53.634Z,35.78
2023-03-06T15:24:36.375Z,35.59
2023-03-06T15:27:07.426Z,35.46
2023-03-06T15:29:39.663Z,35.86
2023-03-06T15:32:14.355Z,36.43
2023-03-06T15:34:42.956Z,36.49
2023-03-06T15:37:27.890Z,36.31
2023-03-06T15:40:09.687Z,36.42
2023-03-06T15:42:38.110Z,36.98
2023-03-06T15:45:19.716Z,37.42
2023-03-06T15:47:54.627Z,37.58
2023-03-06T15:50:29.036Z,37.87
2023-03-06T15:52:57.524Z,37.89
2023-03-06T15:55:26.295Z,37.56
2023-03-06T15:58:03.174Z,38.41
2023-03-06T16:00:34.478Z,38.78
2023-03-06T16:03:03.260Z,37.89
2023-03-06T16:05:31.726Z,37.93
2023-03-06T16:08:00.181Z,38.27
2023-03-06T16:10:30.052Z,38.48
2023-03-06T16:13:04.736Z,38.23
2023-03-06T16:15:37.985Z,38.37
2023-03-06T16:18:07.033Z,38.53
2023-03-06T16:20:35.403Z,38.52
2023-03-06T16:23:08.109Z,38.54
2023-03-06T16:25:38.414Z,38.63
2023-03-06T16:28:11.782Z,39.02
2023-03-06T16:30:41.342Z,39.42
2023-03-06T16:33:12.763Z,38.83
2023-03-06T16:35:41.484Z,38.69
2023-03-06T16:38:10.301Z,38.74
2023-03-06T16:40:41.594Z,38.72
2023-03-06T16:43:10.843Z,39.85
2023-03-06T16:45:41.904Z,39.97
2023-03-06T16:48:16.007Z,39.99
2023-03-06T16:50:44.726Z,40.35
2023-03-06T16:53:14.261Z,40.12
2023-03-06T16:55:42.715Z,40.26
2023-03-06T16:58:11.273Z,39.37
2023-03-06T17:00:39.746Z,39.26
2023-03-06T17:03:08.112Z,40.06
2023-03-06T17:05:37.365Z,38.96
2023-03-06T17:08:05.922Z,39.42
2023-03-06T17:10:35.078Z,40.06
2023-03-06T17:13:04.244Z,40.00
2023-03-06T17:15:32.670Z,40.45
2023-03-06T17:18:01.139Z,40.23
2023-03-06T17:20:30.170Z,40.33
2023-03-06T17:22:58.668Z,40.39
2023-03-06T17:25:27.188Z,40.13
2023-03-06T17:27:55.970Z,40.24
2023-03-06T17:30:24.458Z,40.43
2023-03-06T17:32:53.879Z,39.87
2023-03-06T17:35:22.421Z,40.19
2023-03-06T17:37:51.398Z,40.76
2023-03-06T17:40:20.133Z,40.86
2023-03-06T17:42:48.621Z,39.76
2023-03-06T17:45:17.080Z,39.67
2023-03-06T17:47:47.407Z,39.09
2023-03-06T17:50:17.396Z,39.63
2023-03-06T17:52:46.093Z,39.76
2023-03-06T17:55:14.661Z,39.65
2023-03-06T17:57:43.147Z,40.13
2023-03-06T18:00:12.337Z,40.00
2023-03-06T18:02:42.312Z,40.01
2023-03-06T18:05:11.279Z,40.33
2023-03-06T18:07:39.693Z,40.73
2023-03-06T18:10:08.308Z,40.94
2023-03-06T18:12:36.874Z,40.58
2023-03-06T18:15:06.533Z,40.66
2023-03-06T18:17:35.052Z,40.56
2023-03-06T18:20:03.940Z,40.63
2023-03-06T18:22:32.586Z,40.35
2023-03-06T18:25:01.176Z,40.32
2023-03-06T18:27:32.384Z,40.77
2023-03-06T18:30:01.622Z,40.55
2023-03-06T18:32:30.042Z,40.60
2023-03-06T18:34:59.275Z,40.44
2023-03-06T18:37:28.007Z,40.57
2023-03-06T18:39:56.544Z,40.98
2023-03-06T18:42:26.459Z,41.38
2023-03-06T18:44:54.836Z,41.37
2023-03-06T18:47:23.206Z,41.26
2023-03-06T18:49:53.088Z,41.18
2023-03-06T18:52:22.026Z,40.88
2023-03-06T18:54:51.082Z,40.88
2023-03-06T18:57:19.846Z,40.69
2023-03-06T18:59:48.958Z,40.70
2023-03-06T19:02:17.825Z,40.50
2023-03-06T19:04:46.821Z,41.18
2023-03-06T19:07:15.676Z,41.13
2023-03-06T19:09:44.610Z,41.24
2023-03-06T19:12:13.191Z,41.44
2023-03-06T19:14:41.554Z,41.63
2023-03-06T19:17:09.965Z,41.62
2023-03-06T19:19:38.481Z,41.68
2023-03-06T19:22:06.862Z,42.06
2023-03-06T19:24:35.235Z,41.90
2023-03-06T19:27:03.661Z,41.80
2023-03-06T19:29:32.769Z,41.84
2023-03-06T19:32:01.490Z,42.04
2023-03-06T19:34:30.082Z,42.27
2023-03-06T19:36:58.566Z,42.07
2023-03-06T19:39:27.169Z,42.26
2023-03-06T19:41:55.678Z,42.47
2023-03-06T19:44:24.123Z,42.76
2023-03-06T19:46:52.460Z,42.74
2023-03-06T19:49:22.557Z,42.75
2023-03-06T19:51:51.044Z,42.54
2023-03-06T19:54:23.612Z,42.61
2023-03-06T19:56:52.131Z,42.94
2023-03-06T19:59:20.579Z,42.75
2023-03-06T20:01:49.314Z,42.79
2023-03-06T20:04:17.824Z,42.92
2023-03-06T20:06:46.943Z,43.18
2023-03-06T20:09:18.064Z,43.20
2023-03-06T20:11:48.914Z,43.36
2023-03-06T20:14:18.799Z,43.60
2023-03-06T20:16:47.206Z,43.58
2023-03-06T20:19:16.821Z,43.60
2023-03-06T20:21:45.375Z,43.54
2023-03-06T20:24:16.990Z,43.85
2023-03-06T20:26:46.291Z,43.97
2023-03-06T20:29:15.100Z,43.99
2023-03-06T20:31:43.742Z,44.20
2023-03-06T20:34:13.325Z,44.53
2023-03-06T20:36:41.760Z,44.25
2023-03-06T20:39:13.273Z,44.26
2023-03-06T20:41:42.024Z,44.06
2023-03-06T20:44:13.933Z,44.49
2023-03-06T20:46:42.402Z,44.60
2023-03-06T20:49:13.137Z,44.62
2023-03-06T20:51:42.081Z,44.68
2023-03-06T20:54:13.281Z,44.61
2023-03-06T20:56:42.805Z,44.57
2023-03-06T20:59:12.280Z,44.54
2023-03-06T21:01:42.468Z,44.64
2023-03-06T21:04:14.012Z,44.78
2023-03-06T21:06:47.007Z,44.55
2023-03-06T21:09:17.289Z,44.67
2023-03-06T21:11:45.923Z,44.80
2023-03-06T21:14:15.144Z,44.59
2023-03-06T21:16:43.978Z,44.55
2023-03-06T21:19:12.482Z,44.81
2023-03-06T21:21:41.035Z,44.47
2023-03-06T21:24:09.425Z,44.28
2023-03-06T21:26:38.253Z,44.53
2023-03-06T21:29:06.753Z,44.22
2023-03-06T21:31:35.198Z,44.60
2023-03-06T21:34:05.344Z,44.19
2023-03-06T21:36:34.344Z,44.47
2023-03-06T21:39:06.525Z,44.23
2023-03-06T21:41:35.165Z,43.91
2023-03-06T21:44:05.624Z,43.45
2023-03-06T21:46:35.041Z,43.47
2023-03-06T21:49:04.835Z,43.29
2023-03-06T21:51:33.432Z,43.16
2023-03-06T21:54:03.219Z,43.08
2023-03-06T21:56:33.691Z,42.74
2023-03-06T21:59:02.356Z,42.96
2023-03-06T22:01:31.212Z,43.03
2023-03-06T22:04:00.413Z,43.20
2023-03-06T22:06:30.374Z,43.51
2023-03-06T22:09:00.512Z,43.58
2023-03-06T22:11:31.674Z,43.71
2023-03-06T22:14:00.275Z,43.90
2023-03-06T22:16:28.820Z,44.29
2023-03-06T22:18:57.555Z,44.11
2023-03-06T22:21:26.494Z,44.41
2023-03-06T22:23:57.728Z,44.85
2023-03-06T22:26:28.016Z,44.50
2023-03-06T22:28:56.551Z,44.66
2023-03-06T22:31:26.772Z,44.67
2023-03-06T22:33:56.412Z,44.35
2023-03-06T22:36:25.309Z,44.32
2023-03-06T22:38:58.936Z,44.21
2023-03-06T22:41:28.076Z,44.26
2023-03-06T22:43:57.932Z,44.37
2023-03-06T22:46:26.743Z,44.24
2023-03-06T22:48:57.512Z,44.49
2023-03-06T22:51:26.692Z,44.41
2023-03-06T22:53:55.159Z,44.63
2023-03-06T22:56:23.965Z,44.57
2023-03-06T22:58:52.431Z,44.73
2023-03-06T23:01:23.492Z,45.15
2023-03-06T23:03:54.126Z,45.05
2023-03-06T23:06:28.070Z,45.28
2023-03-06T23:09:01.572Z,45.27
2023-03-06T23:11:30.514Z,44.85
2023-03-06T23:14:19.391Z,45.06
2023-03-06T23:17:06.845Z,45.03
2023-03-06T23:19:53.882Z,45.08
2023-03-06T23:22:40.578Z,45.15
2023-03-06T23:25:27.752Z,45.22
2023-03-06T23:27:56.182Z,45.36
2023-03-06T23:30:24.649Z,45.41
2023-03-06T23:32:53.060Z,45.10
2023-03-06T23:35:21.397Z,45.25
2023-03-06T23:37:49.800Z,45.11
2023-03-06T23:40:18.501Z,45.11
2023-03-06T23:42:46.902Z,44.97
2023-03-06T23:45:15.467Z,44.93
2023-03-06T23:47:43.813Z,44.81
2023-03-06T23:50:12.520Z,44.97
2023-03-06T23:52:40.907Z,44.76
2023-03-06T23:55:09.568Z,44.91
2023-03-06T23:57:38.005Z,44.67
